Time;durP1;ratioP1;P1;durP2;ratioP2;P2;SDS_P1;SDS_P2;PMS_P1;PMS_P2;Temp;Humidity;BMP_temperature;BMP_pressure;BME280_temperature;BME280_humidity;BME280_pressure;Samples;Min_cycle;Max_cycle;Signal;HPM_P1;HPM_P2
2022/07/08 00:00:59;;;;;;;11.98;3.63;;;17.20;98.20;;;;;;5012800;28;20037;-65
2022/07/08 00:03:24;;;;;;;10.50;3.38;;;17.20;98.40;;;;;;5013243;28;20030;-65
2022/07/08 00:05:50;;;;;;;15.52;4.60;;;17.20;98.40;;;;;;5012875;28;20026;-65
2022/07/08 00:08:16;;;;;;;13.52;4.63;;;17.20;98.30;;;;;;5007299;28;20117;-66
2022/07/08 00:10:41;;;;;;;9.95;3.40;;;17.10;98.40;;;;;;4995110;28;20018;-65
2022/07/08 00:13:07;;;;;;;12.68;3.42;;;17.20;98.50;;;;;;5008398;28;20481;-65
2022/07/08 00:15:32;;;;;;;12.82;3.38;;;17.20;98.40;;;;;;5012099;28;20032;-65
2022/07/08 00:17:58;;;;;;;10.52;3.47;;;17.20;98.40;;;;;;5011638;28;20104;-65
2022/07/08 00:20:24;;;;;;;11.38;3.47;;;17.20;98.40;;;;;;5014008;28;20030;-65
2022/07/08 00:22:49;;;;;;;14.38;3.63;;;17.20;98.40;;;;;;5012524;28;20072;-65
2022/07/08 00:25:15;;;;;;;11.38;4.10;;;17.10;98.30;;;;;;5013028;28;20022;-65
2022/07/08 00:27:40;;;;;;;12.95;3.70;;;17.10;98.30;;;;;;5004635;28;20018;-65
2022/07/08 00:30:07;;;;;;;21.65;4.80;;;17.10;98.50;;;;;;5014598;28;20022;-65
2022/07/08 00:32:35;;;;;;;11.57;3.58;;;17.10;98.50;;;;;;5004536;28;20029;-65
2022/07/08 00:35:01;;;;;;;13.68;3.60;;;17.10;98.50;;;;;;5013164;28;20085;-65
2022/07/08 00:37:26;;;;;;;11.98;3.50;;;17.00;98.60;;;;;;5004860;28;20383;-65
2022/07/08 00:39:52;;;;;;;11.43;4.20;;;17.00;98.60;;;;;;5013963;28;20559;-65
2022/07/08 00:42:18;;;;;;;14.98;4.45;;;17.00;98.70;;;;;;5012610;28;20030;-65
2022/07/08 00:44:43;;;;;;;15.90;4.07;;;17.00;98.80;;;;;;5010926;28;20026;-65
2022/07/08 00:47:09;;;;;;;14.60;4.07;;;16.90;98.80;;;;;;5005482;28;20394;-65
2022/07/08 00:49:34;;;;;;;15.57;4.25;;;16.90;98.80;;;;;;5006079;28;20394;-64
2022/07/08 00:52:00;;;;;;;13.10;3.85;;;16.90;98.80;;;;;;5012780;28;20057;-65
2022/07/08 00:54:26;;;;;;;17.48;4.05;;;16.90;98.90;;;;;;5013176;28;20030;-65
2022/07/08 00:56:54;;;;;;;14.35;4.22;;;16.90;98.90;;;;;;5011837;28;20022;-65
2022/07/08 00:59:20;;;;;;;14.68;4.20;;;16.90;98.90;;;;;;5013149;28;20036;-64
2022/07/08 01:01:46;;;;;;;12.32;3.60;;;16.90;99.00;;;;;;5011516;28;20028;-65
2022/07/08 01:04:11;;;;;;;19.83;4.22;;;17.00;99.00;;;;;;4995102;28;20109;-65
2022/07/08 01:06:37;;;;;;;9.65;3.72;;;16.90;98.90;;;;;;4996157;28;20033;-65
2022/07/08 01:09:03;;;;;;;12.90;3.50;;;16.90;99.00;;;;;;4995091;28;20050;-65
2022/07/08 01:11:28;;;;;;;16.63;3.88;;;16.90;99.00;;;;;;4994525;28;20042;-65
2022/07/08 01:13:55;;;;;;;15.82;4.47;;;16.90;99.00;;;;;;5012406;28;20033;-65
2022/07/08 01:16:20;;;;;;;15.27;4.40;;;16.90;99.00;;;;;;5009305;28;20072;-65
2022/07/08 01:18:46;;;;;;;13.48;3.78;;;16.90;99.10;;;;;;5013098;28;20050;-65
2022/07/08 01:21:12;;;;;;;13.40;4.00;;;16.90;99.00;;;;;;5002466;28;20023;-64
2022/07/08 01:23:37;;;;;;;13.02;3.80;;;17.00;99.00;;;;;;5012564;28;20041;-64
2022/07/08 01:26:12;;;;;;;15.98;4.70;;;17.00;99.00;;;;;;5003961;28;20338;-64
2022/07/08 01:28:41;;;;;;;16.33;3.58;;;16.90;99.10;;;;;;5012058;28;20038;-65
2022/07/08 01:31:07;;;;;;;20.65;5.35;;;16.90;99.10;;;;;;5011177;28;20037;-65
2022/07/08 01:33:32;;;;;;;14.18;4.57;;;17.00;99.00;;;;;;5002629;28;20046;-64
2022/07/08 01:35:58;;;;;;;10.95;3.67;;;16.90;99.10;;;;;;4993888;28;20018;-64
2022/07/08 01:38:24;;;;;;;13.63;3.70;;;16.90;99.10;;;;;;5008309;28;20038;-64
2022/07/08 01:40:49;;;;;;;15.43;4.47;;;17.00;99.20;;;;;;5013083;28;20064;-64
2022/07/08 01:43:15;;;;;;;11.98;4.07;;;17.00;99.10;;;;;;5009252;28;20448;-64
2022/07/08 01:45:40;;;;;;;15.65;3.72;;;16.90;99.20;;;;;;5011655;28;20018;-64
2022/07/08 01:48:07;;;;;;;11.63;3.47;;;17.00;99.20;;;;;;5010985;28;20029;-64
2022/07/08 01:50:33;;;;;;;11.07;4.07;;;17.00;99.20;;;;;;5011484;28;20026;-65
2022/07/08 01:52:59;;;;;;;14.88;3.70;;;17.00;99.20;;;;;;5006481;28;20330;-66
2022/07/08 01:55:24;;;;;;;16.35;4.25;;;17.00;99.20;;;;;;4993299;28;20517;-66
2022/07/08 01:57:50;;;;;;;16.92;4.68;;;17.10;99.20;;;;;;5007094;28;20041;-66
2022/07/08 02:00:16;;;;;;;11.57;3.65;;;17.10;99.30;;;;;;5010364;28;20033;-65
2022/07/08 02:02:41;;;;;;;13.55;4.63;;;17.10;99.30;;;;;;5010899;28;20104;-65
2022/07/08 02:05:08;;;;;;;16.33;4.53;;;17.10;99.30;;;;;;5011499;28;20022;-65
2022/07/08 02:07:34;;;;;;;12.90;3.72;;;17.00;99.40;;;;;;5010805;28;20030;-65
2022/07/08 02:10:00;;;;;;;13.10;4.50;;;17.10;99.40;;;;;;5012352;28;20042;-65
2022/07/08 02:12:25;;;;;;;15.18;4.25;;;17.10;99.40;;;;;;5005620;28;20060;-65
2022/07/08 02:15:01;;;;;;;13.05;3.83;;;17.00;99.50;;;;;;5011103;28;20042;-65
2022/07/08 02:17:28;;;;;;;14.80;3.90;;;17.00;99.50;;;;;;5010553;28;20409;-65
2022/07/08 02:19:53;;;;;;;16.63;4.45;;;17.00;99.60;;;;;;5009438;28;20030;-65
2022/07/08 02:22:19;;;;;;;15.63;4.47;;;17.00;99.60;;;;;;5009656;28;20029;-66
2022/07/08 02:24:47;;;;;;;15.93;4.78;;;17.10;99.60;;;;;;5011618;28;20037;-65
2022/07/08 02:27:12;;;;;;;12.55;4.18;;;17.10;99.60;;;;;;5010669;28;20385;-65
2022/07/08 02:29:38;;;;;;;16.98;3.78;;;17.10;99.70;;;;;;5012238;28;20030;-65
2022/07/08 02:32:04;;;;;;;9.68;3.50;;;17.10;99.70;;;;;;5007828;28;20045;-65
2022/07/08 02:34:30;;;;;;;15.57;4.00;;;17.10;99.70;;;;;;5012398;28;20417;-65
2022/07/08 02:36:55;;;;;;;12.85;3.75;;;17.00;99.70;;;;;;5009900;28;20029;-65
2022/07/08 02:39:24;;;;;;;12.25;3.90;;;17.00;99.80;;;;;;5012305;28;20446;-65
2022/07/08 02:41:50;;;;;;;11.40;4.68;;;17.00;99.90;;;;;;5006243;28;20034;-65
2022/07/08 02:44:16;;;;;;;13.05;3.95;;;17.00;99.90;;;;;;5010969;28;20034;-65
2022/07/08 02:46:42;;;;;;;15.73;4.18;;;17.00;99.90;;;;;;5009874;28;20022;-65
2022/07/08 02:49:08;;;;;;;10.30;3.83;;;17.00;99.90;;;;;;5011668;28;20032;-65
2022/07/08 02:51:35;;;;;;;12.82;4.20;;;17.00;99.90;;;;;;5010287;28;20420;-65
2022/07/08 02:54:00;;;;;;;18.67;5.63;;;17.00;99.90;;;;;;5011966;28;20041;-65
2022/07/08 02:56:26;;;;;;;11.90;4.07;;;17.00;99.90;;;;;;5006238;28;20030;-65
2022/07/08 02:58:52;;;;;;;12.38;4.22;;;17.10;99.90;;;;;;5011136;28;20101;-65
2022/07/08 03:01:17;;;;;;;14.40;4.15;;;17.00;99.90;;;;;;5011058;28;20101;-65
2022/07/08 03:03:43;;;;;;;12.55;4.00;;;17.00;99.90;;;;;;5011060;28;20022;-65
2022/07/08 03:06:08;;;;;;;13.65;3.85;;;17.00;99.90;;;;;;5011371;28;20401;-65
2022/07/08 03:08:34;;;;;;;14.35;4.30;;;17.10;99.90;;;;;;5011880;28;20042;-66
2022/07/08 03:10:59;;;;;;;14.95;4.45;;;17.10;99.90;;;;;;5014221;28;20041;-66
2022/07/08 03:13:25;;;;;;;13.93;3.80;;;17.10;99.90;;;;;;5014008;28;20445;-64
2022/07/08 03:15:50;;;;;;;9.45;3.30;;;17.10;99.90;;;;;;5014921;28;20025;-64
2022/07/08 03:18:16;;;;;;;16.15;4.63;;;17.10;99.90;;;;;;5013640;28;20032;-64
2022/07/08 03:20:41;;;;;;;15.40;3.95;;;17.10;99.90;;;;;;5015208;28;20018;-64
2022/07/08 03:23:07;;;;;;;13.20;4.15;;;17.10;99.90;;;;;;5013837;28;20164;-64
2022/07/08 03:25:33;;;;;;;11.68;3.58;;;17.10;99.90;;;;;;5014789;28;20022;-64
2022/07/08 03:27:59;;;;;;;11.77;3.40;;;17.10;99.90;;;;;;5009774;28;20478;-64
2022/07/08 03:30:25;;;;;;;12.65;3.88;;;17.10;99.90;;;;;;5015515;28;20025;-64
2022/07/08 03:32:50;;;;;;;13.93;3.97;;;17.10;99.90;;;;;;5013097;28;20421;-64
2022/07/08 03:35:16;;;;;;;12.85;3.72;;;17.10;99.90;;;;;;5014346;28;20038;-64
2022/07/08 03:37:43;;;;;;;13.90;3.83;;;17.10;99.90;;;;;;5013902;28;20169;-64
2022/07/08 03:42:54;;;;;;;10.13;3.47;;;17.20;99.90;;;;;;5013179;28;20048;-64
2022/07/08 03:45:20;;;;;;;9.65;3.38;;;17.20;99.90;;;;;;5005984;28;20108;-65
2022/07/08 03:47:45;;;;;;;15.25;5.05;;;17.20;99.90;;;;;;5010545;28;20095;-64
2022/07/08 03:50:11;;;;;;;13.20;3.63;;;17.20;99.90;;;;;;4996960;28;20027;-65
2022/07/08 03:52:37;;;;;;;15.52;4.10;;;17.30;99.90;;;;;;5004330;28;20037;-65
2022/07/08 03:55:03;;;;;;;13.57;3.72;;;17.30;99.90;;;;;;5015131;28;20041;-65
2022/07/08 03:57:29;;;;;;;27.05;4.10;;;17.30;99.90;;;;;;5012287;28;20038;-65
2022/07/08 03:59:54;;;;;;;11.32;3.33;;;17.30;99.90;;;;;;5013721;28;20389;-65
2022/07/08 04:02:20;;;;;;;11.02;3.28;;;17.30;99.90;;;;;;5008985;28;20093;-65
2022/07/08 04:04:45;;;;;;;14.23;3.60;;;17.30;99.90;;;;;;4995211;28;20077;-65
2022/07/08 04:07:11;;;;;;;14.45;4.25;;;17.40;99.90;;;;;;5006075;28;20365;-65
2022/07/08 04:09:36;;;;;;;12.35;4.05;;;17.40;99.90;;;;;;5012643;28;20041;-65
2022/07/08 04:12:02;;;;;;;11.40;3.78;;;17.40;99.80;;;;;;5012641;28;20118;-65
2022/07/08 04:14:28;;;;;;;11.75;4.20;;;17.40;99.70;;;;;;5013707;28;20030;-65
2022/07/08 04:16:53;;;;;;;10.02;3.70;;;17.40;99.70;;;;;;5013116;28;20105;-65
2022/07/08 04:19:19;;;;;;;13.23;3.20;;;17.30;99.80;;;;;;5014323;28;20397;-65
2022/07/08 04:21:44;;;;;;;17.63;4.32;;;17.30;99.80;;;;;;4999200;28;20026;-65
2022/07/08 04:24:10;;;;;;;13.90;3.97;;;17.30;99.80;;;;;;5014550;28;20451;-69
2022/07/08 04:26:36;;;;;;;14.32;4.25;;;17.30;99.80;;;;;;4999754;28;20025;-71
2022/07/08 04:29:01;;;;;;;11.98;3.85;;;17.30;99.80;;;;;;5013559;28;20176;-71
2022/07/08 04:31:27;;;;;;;11.25;3.20;;;17.30;99.80;;;;;;5013007;28;20080;-71
2022/07/08 04:33:53;;;;;;;12.65;3.95;;;17.30;99.80;;;;;;5012589;28;20029;-69
2022/07/08 04:36:23;;;;;;;10.32;3.70;;;17.40;99.90;;;;;;5013251;28;20022;-69
2022/07/08 04:38:49;;;;;;;9.60;2.95;;;17.40;99.90;;;;;;5003650;28;20113;-69
2022/07/08 04:41:15;;;;;;;11.55;3.35;;;17.40;99.90;;;;;;5010358;28;20030;-67
2022/07/08 04:43:43;;;;;;;8.80;3.67;;;17.50;99.80;;;;;;5011499;28;20029;-67
2022/07/08 04:46:10;;;;;;;12.13;3.70;;;17.50;99.80;;;;;;5013735;28;20026;-67
2022/07/08 04:48:35;;;;;;;11.15;3.63;;;17.60;99.70;;;;;;5012177;28;20076;-67
2022/07/08 04:51:01;;;;;;;10.15;3.75;;;17.60;99.60;;;;;;5006614;28;20034;-67
2022/07/08 04:53:26;;;;;;;9.90;3.60;;;17.70;99.60;;;;;;5001023;28;20125;-67
2022/07/08 04:55:52;;;;;;;14.32;4.18;;;17.70;99.40;;;;;;4997682;28;20036;-67
2022/07/08 04:58:17;;;;;;;9.52;3.50;;;17.70;99.40;;;;;;5012321;28;20121;-67
2022/07/08 05:00:43;;;;;;;8.27;3.92;;;17.70;99.40;;;;;;5009320;28;20481;-67
2022/07/08 05:03:08;;;;;;;12.50;3.10;;;17.70;99.30;;;;;;5008152;28;20470;-67
2022/07/08 05:05:34;;;;;;;14.82;4.47;;;17.70;99.40;;;;;;5013653;28;20025;-66
2022/07/08 05:08:00;;;;;;;8.52;3.45;;;17.70;99.30;;;;;;5009788;28;20069;-67
2022/07/08 05:10:27;;;;;;;11.85;4.28;;;17.80;99.10;;;;;;5005199;28;20113;-67
2022/07/08 05:12:53;;;;;;;11.38;3.70;;;17.80;99.10;;;;;;5009825;28;20088;-67
2022/07/08 05:15:19;;;;;;;12.23;3.97;;;17.90;99.20;;;;;;5013573;28;20104;-67
2022/07/08 05:17:46;;;;;;;9.60;4.20;;;17.90;99.10;;;;;;5009000;28;20113;-67
2022/07/08 05:20:11;;;;;;;8.77;3.72;;;18.00;99.10;;;;;;5012575;28;20060;-67
2022/07/08 05:22:37;;;;;;;16.27;3.10;;;18.00;98.90;;;;;;5012292;28;20450;-67
2022/07/08 05:25:04;;;;;;;12.85;3.33;;;18.00;98.80;;;;;;4995324;28;20034;-67
2022/07/08 05:27:29;;;;;;;10.15;3.67;;;18.00;98.80;;;;;;4996329;28;20058;-67
2022/07/08 05:29:55;;;;;;;9.25;3.40;;;18.00;98.80;;;;;;4993495;28;20089;-67
2022/07/08 05:32:21;;;;;;;10.13;3.20;;;18.10;98.70;;;;;;4998109;28;20038;-67
2022/07/08 05:34:46;;;;;;;10.90;2.95;;;18.10;98.60;;;;;;5009025;28;20030;-67
2022/07/08 05:37:12;;;;;;;10.65;3.10;;;18.00;98.40;;;;;;5011524;28;20076;-67
2022/07/08 05:39:42;;;;;;;10.18;4.22;;;18.00;98.50;;;;;;5007144;28;20037;-67
2022/07/08 05:42:09;;;;;;;12.65;3.20;;;18.00;98.50;;;;;;5007477;28;20033;-69
2022/07/08 05:44:36;;;;;;;9.48;3.17;;;18.00;98.50;;;;;;5004833;28;20516;-66
2022/07/08 05:47:05;;;;;;;8.77;3.05;;;18.00;98.30;;;;;;5025231;28;20038;-68
2022/07/08 05:49:31;;;;;;;8.52;3.58;;;17.90;98.20;;;;;;5012470;28;20100;-68
2022/07/08 05:51:57;;;;;;;8.55;3.42;;;17.70;98.30;;;;;;5004149;28;20018;-68
2022/07/08 05:54:22;;;;;;;8.00;3.10;;;17.70;98.40;;;;;;5011547;28;20520;-68
2022/07/08 05:56:48;;;;;;;8.88;2.90;;;17.70;98.40;;;;;;5010623;28;20054;-67
2022/07/08 05:59:14;;;;;;;8.45;2.80;;;17.70;98.40;;;;;;5011833;28;20026;-68
2022/07/08 06:01:39;;;;;;;10.77;2.97;;;17.80;98.30;;;;;;5009105;28;20469;-67
2022/07/08 06:04:05;;;;;;;7.18;2.92;;;17.80;98.20;;;;;;5011166;28;20029;-68
2022/07/08 06:06:31;;;;;;;8.45;2.97;;;17.90;98.20;;;;;;4997914;28;20157;-68
2022/07/08 06:08:56;;;;;;;7.15;3.03;;;17.80;98.00;;;;;;4993571;28;20520;-68
2022/07/08 06:11:22;;;;;;;7.18;2.70;;;17.80;97.90;;;;;;5006664;28;20048;-67
2022/07/08 06:13:47;;;;;;;9.35;3.13;;;17.70;97.90;;;;;;5010828;28;20128;-67
2022/07/08 06:16:13;;;;;;;10.30;3.35;;;17.60;97.90;;;;;;5011673;28;20092;-67
2022/07/08 06:18:38;;;;;;;6.60;2.75;;;17.50;97.90;;;;;;5010439;28;20483;-68
2022/07/08 06:21:04;;;;;;;6.47;3.28;;;17.50;97.80;;;;;;4998454;28;20022;-67
2022/07/08 06:23:31;;;;;;;9.60;3.08;;;17.50;97.80;;;;;;5007445;28;20497;-68
2022/07/08 06:25:57;;;;;;;5.10;2.83;;;17.60;98.00;;;;;;4992927;28;20058;-68
2022/07/08 06:28:24;;;;;;;8.05;2.80;;;17.70;97.90;;;;;;5006644;28;20563;-68
2022/07/08 06:30:50;;;;;;;6.63;2.85;;;17.70;97.70;;;;;;5000227;28;20120;-68
2022/07/08 06:33:16;;;;;;;6.30;3.13;;;17.70;97.80;;;;;;5007096;28;20468;-68
2022/07/08 06:35:41;;;;;;;9.40;3.50;;;17.80;97.80;;;;;;5005793;28;20032;-68
2022/07/08 06:38:08;;;;;;;8.73;3.00;;;17.90;97.70;;;;;;5006720;28;20113;-68
2022/07/08 06:40:33;;;;;;;9.13;2.67;;;17.90;97.60;;;;;;4996204;28;20026;-68
2022/07/08 06:42:59;;;;;;;13.32;3.40;;;17.90;97.60;;;;;;5004139;28;20026;-68
2022/07/08 06:45:25;;;;;;;11.05;3.53;;;17.90;97.70;;;;;;5010046;28;20025;-68
2022/07/08 06:47:50;;;;;;;10.70;3.67;;;17.90;97.60;;;;;;5006315;28;20057;-69
2022/07/08 06:50:16;;;;;;;10.05;3.25;;;17.90;97.80;;;;;;5008537;28;20030;-68
2022/07/08 06:52:41;;;;;;;11.63;3.25;;;17.90;97.40;;;;;;5001596;28;20113;-68
2022/07/08 06:55:07;;;;;;;11.13;3.63;;;17.80;97.30;;;;;;5009248;28;20038;-67
2022/07/08 06:57:33;;;;;;;9.10;3.92;;;17.80;97.40;;;;;;5004894;28;20026;-67
2022/07/08 06:59:59;;;;;;;12.45;3.33;;;17.80;97.50;;;;;;5003373;28;20040;-69
2022/07/08 07:02:24;;;;;;;9.05;2.75;;;17.70;97.30;;;;;;5007805;28;20100;-68
2022/07/08 07:04:50;;;;;;;13.55;3.25;;;17.80;97.40;;;;;;5009807;28;20061;-69
2022/07/08 07:07:15;;;;;;;12.23;3.60;;;17.80;97.40;;;;;;4999504;28;20075;-68
2022/07/08 07:09:41;;;;;;;8.63;3.13;;;17.70;97.30;;;;;;5006564;28;20046;-69
2022/07/08 07:12:07;;;;;;;12.93;3.58;;;17.70;97.40;;;;;;5008507;28;20962;-69
2022/07/08 07:14:34;;;;;;;8.20;3.30;;;17.70;97.40;;;;;;5005655;28;20103;-68
2022/07/08 07:16:59;;;;;;;11.07;3.20;;;17.70;97.40;;;;;;5001765;28;20029;-69
2022/07/08 07:19:26;;;;;;;8.70;2.95;;;17.80;97.50;;;;;;5003631;28;20031;-69
2022/07/08 07:21:52;;;;;;;10.93;3.72;;;17.90;97.40;;;;;;5001987;28;20351;-69
2022/07/08 07:24:17;;;;;;;12.32;3.30;;;17.90;97.30;;;;;;4996270;28;20029;-69
2022/07/08 07:26:43;;;;;;;9.52;3.58;;;17.90;97.30;;;;;;4999465;28;20025;-67
2022/07/08 07:29:09;;;;;;;12.50;3.63;;;18.00;97.20;;;;;;5001639;28;20025;-68
2022/07/08 07:31:35;;;;;;;9.57;2.70;;;18.00;97.30;;;;;;5001750;28;20420;-68
2022/07/08 07:34:02;;;;;;;11.10;3.88;;;18.00;97.00;;;;;;5009912;28;20128;-68
2022/07/08 07:36:27;;;;;;;11.15;3.20;;;17.90;96.80;;;;;;5009236;28;20034;-68
2022/07/08 07:38:53;;;;;;;10.88;3.08;;;17.90;96.50;;;;;;5009078;28;20390;-68
2022/07/08 07:41:19;;;;;;;10.45;3.63;;;17.80;96.60;;;;;;5005119;28;20030;-68
2022/07/08 07:43:45;;;;;;;13.77;3.58;;;17.80;96.60;;;;;;5009257;28;20041;-69
2022/07/08 07:46:10;;;;;;;7.68;2.90;;;17.80;96.60;;;;;;5020918;28;20037;-69
2022/07/08 07:48:36;;;;;;;13.93;3.90;;;17.80;96.70;;;;;;5008568;28;20038;-68
2022/07/08 07:51:02;;;;;;;11.40;3.88;;;17.90;96.60;;;;;;4999015;28;20077;-69
2022/07/08 07:53:27;;;;;;;10.90;2.95;;;17.80;96.50;;;;;;4994105;28;20105;-68
2022/07/08 07:55:53;;;;;;;11.13;4.38;;;17.90;96.50;;;;;;5011812;28;20033;-68
2022/07/08 07:58:19;;;;;;;11.32;3.50;;;18.00;96.40;;;;;;5012861;28;20391;-69
2022/07/08 08:00:45;;;;;;;12.75;3.25;;;18.00;96.30;;;;;;5008486;28;20420;-68
2022/07/08 08:03:11;;;;;;;10.68;3.17;;;18.00;96.30;;;;;;5007336;28;20042;-69
2022/07/08 08:05:38;;;;;;;8.43;2.92;;;18.10;96.10;;;;;;5011944;28;20057;-67
2022/07/08 08:08:04;;;;;;;11.27;3.22;;;18.20;95.80;;;;;;5011451;28;20437;-68
2022/07/08 08:10:30;;;;;;;8.60;3.35;;;18.30;95.70;;;;;;5001305;28;20031;-68
2022/07/08 08:12:56;;;;;;;6.95;2.55;;;18.40;95.80;;;;;;5007634;28;20045;-69
2022/07/08 08:15:29;;;;;;;7.03;2.95;;;18.50;95.60;;;;;;5008365;28;20551;-69
2022/07/08 08:17:55;;;;;;;9.35;3.10;;;18.60;95.20;;;;;;5011438;28;20042;-69
2022/07/08 08:20:23;;;;;;;7.65;2.17;;;18.70;95.20;;;;;;5007634;28;20113;-68
2022/07/08 08:22:49;;;;;;;8.02;3.08;;;18.70;95.00;;;;;;5007844;28;20057;-68
2022/07/08 08:25:15;;;;;;;10.52;3.40;;;18.80;95.00;;;;;;5010325;28;20486;-68
2022/07/08 08:27:40;;;;;;;9.02;2.83;;;18.90;94.90;;;;;;5011458;28;20029;-69
2022/07/08 08:30:08;;;;;;;9.60;3.33;;;19.00;94.60;;;;;;5012281;28;20488;-68
2022/07/08 08:32:34;;;;;;;9.02;2.38;;;19.10;94.30;;;;;;5010945;28;20061;-67
2022/07/08 08:35:02;;;;;;;7.45;2.90;;;19.20;94.20;;;;;;5008630;28;20037;-67
2022/07/08 08:37:28;;;;;;;9.00;2.65;;;19.30;94.00;;;;;;5008654;28;20030;-67
2022/07/08 08:39:53;;;;;;;8.93;2.97;;;19.30;93.10;;;;;;5003534;28;20118;-68
2022/07/08 08:42:20;;;;;;;6.00;2.50;;;19.20;93.10;;;;;;4999220;28;20045;-67
2022/07/08 08:44:49;;;;;;;9.68;3.33;;;19.20;93.20;;;;;;5012660;28;20056;-68
2022/07/08 08:47:16;;;;;;;8.50;2.95;;;19.20;93.20;;;;;;5019202;28;20025;-67
2022/07/08 08:49:42;;;;;;;9.52;2.92;;;19.30;93.40;;;;;;5002029;28;20062;-68
2022/07/08 08:52:10;;;;;;;9.98;2.35;;;19.40;93.20;;;;;;4999202;28;20025;-67
2022/07/08 08:54:37;;;;;;;8.60;2.15;;;19.60;93.20;;;;;;5002604;28;20030;-67
2022/07/08 08:57:05;;;;;;;9.23;2.42;;;19.70;92.50;;;;;;4997735;28;20069;-66
2022/07/08 08:59:33;;;;;;;8.38;2.83;;;19.70;92.50;;;;;;5008348;28;20030;-67
2022/07/08 09:02:02;;;;;;;6.30;2.67;;;19.60;92.00;;;;;;5003397;28;20398;-67
2022/07/08 09:04:30;;;;;;;8.32;2.90;;;19.60;91.80;;;;;;5005828;28;20100;-67
2022/07/08 09:06:58;;;;;;;12.45;3.30;;;19.60;91.70;;;;;;5010886;28;20022;-67
2022/07/08 09:09:23;;;;;;;5.90;2.55;;;19.50;91.70;;;;;;4997264;28;20077;-67
2022/07/08 09:11:49;;;;;;;10.00;2.88;;;19.50;92.20;;;;;;5010860;28;20485;-66
2022/07/08 09:14:22;;;;;;;13.65;2.78;;;19.50;91.90;;;;;;5010045;28;20485;-66
2022/07/08 09:17:08;;;;;;;5.00;2.10;;;19.50;91.90;;;;;;5006856;28;20080;-67
2022/07/08 09:19:34;;;;;;;8.93;2.80;;;19.50;91.70;;;;;;5002499;28;20032;-67
2022/07/08 09:22:00;;;;;;;6.10;2.17;;;19.40;91.50;;;;;;5005661;28;20471;-66
2022/07/08 09:24:27;;;;;;;7.28;2.25;;;19.30;91.70;;;;;;5011494;28;20030;-66
2022/07/08 09:26:57;;;;;;;6.38;2.42;;;19.30;91.70;;;;;;5006568;28;20065;-67
2022/07/08 09:29:23;;;;;;;6.47;2.65;;;19.30;92.00;;;;;;5010785;28;20068;-66
2022/07/08 09:31:48;;;;;;;7.25;2.92;;;19.30;91.90;;;;;;5006794;28;20030;-67
2022/07/08 09:34:17;;;;;;;7.35;2.33;;;19.30;91.80;;;;;;5010518;28;20042;-67
2022/07/08 09:36:46;;;;;;;7.97;2.10;;;19.40;91.70;;;;;;5008997;28;20022;-66
2022/07/08 09:39:28;;;;;;;6.45;2.40;;;19.40;91.60;;;;;;5003951;28;20030;-67
2022/07/08 09:41:53;;;;;;;9.50;2.60;;;19.40;91.40;;;;;;4999060;28;20098;-66
2022/07/08 09:44:22;;;;;;;5.20;2.00;;;19.40;91.40;;;;;;5012736;28;20037;-66
2022/07/08 09:46:49;;;;;;;4.72;2.08;;;19.40;91.60;;;;;;5001573;28;20038;-67
2022/07/08 09:49:32;;;;;;;7.68;2.30;;;19.40;91.20;;;;;;4998123;28;20428;-66
2022/07/08 09:51:58;;;;;;;8.25;2.17;;;19.50;91.20;;;;;;5004630;28;20030;-66
2022/07/08 09:54:25;;;;;;;6.15;2.47;;;19.50;91.00;;;;;;5003190;28;20052;-67
2022/07/08 09:57:00;;;;;;;6.75;2.28;;;19.50;91.10;;;;;;5010543;28;20028;-67
2022/07/08 09:59:30;;;;;;;6.03;2.40;;;19.50;91.20;;;;;;4998099;28;20046;-67
2022/07/08 10:01:57;;;;;;;7.65;2.90;;;19.50;91.10;;;;;;5007580;28;20485;-66
2022/07/08 10:04:24;;;;;;;5.50;2.17;;;19.60;91.10;;;;;;5002599;28;20029;-67
2022/07/08 10:06:50;;;;;;;6.82;2.17;;;19.60;91.10;;;;;;5001007;28;20538;-67
2022/07/08 10:09:17;;;;;;;6.90;2.20;;;19.70;91.00;;;;;;5002059;28;20142;-66
2022/07/08 10:11:44;;;;;;;8.70;2.40;;;19.70;91.00;;;;;;5004998;28;20030;-67
2022/07/08 10:14:09;;;;;;;6.80;2.42;;;19.80;91.00;;;;;;4996614;28;20034;-66
2022/07/08 10:16:38;;;;;;;9.57;2.83;;;19.90;91.10;;;;;;5005348;28;20029;-66
2022/07/08 10:19:07;;;;;;;5.20;2.00;;;20.00;90.80;;;;;;5006051;28;20376;-67
2022/07/08 10:21:36;;;;;;;10.80;3.03;;;20.10;90.60;;;;;;5009991;28;20030;-67
2022/07/08 10:24:02;;;;;;;6.72;2.28;;;20.10;90.40;;;;;;5006535;28;20041;-67
2022/07/08 10:26:31;;;;;;;8.57;2.53;;;20.20;90.40;;;;;;4997994;28;20037;-67
2022/07/08 10:29:08;;;;;;;7.45;2.20;;;20.40;90.00;;;;;;5009732;28;20100;-67
2022/07/08 10:31:51;;;;;;;4.45;1.90;;;20.60;90.00;;;;;;5004423;28;20087;-68
2022/07/08 10:34:28;;;;;;;9.87;3.03;;;20.80;89.90;;;;;;4994833;28;20080;-69
2022/07/08 10:36:54;;;;;;;9.18;3.05;;;21.00;89.50;;;;;;5003768;28;20080;-67
2022/07/08 10:39:40;;;;;;;7.05;2.72;;;21.10;89.00;;;;;;5002038;28;20120;-68
2022/07/08 10:42:07;;;;;;;5.55;2.22;;;21.10;88.50;;;;;;4995464;28;20482;-66
2022/07/08 10:44:45;;;;;;;10.98;2.83;;;21.10;87.70;;;;;;5009584;28;20029;-67
2022/07/08 10:47:12;;;;;;;7.53;2.55;;;21.20;87.70;;;;;;5009644;28;20362;-66
2022/07/08 10:49:41;;;;;;;4.72;2.55;;;21.30;87.20;;;;;;5001826;28;20036;-67
2022/07/08 10:52:07;;;;;;;6.97;2.50;;;21.40;87.10;;;;;;5003424;28;20057;-66
2022/07/08 10:54:39;;;;;;;6.55;2.20;;;21.40;86.50;;;;;;4991734;28;20084;-67
2022/07/08 10:57:14;;;;;;;11.32;2.20;;;21.40;85.90;;;;;;5007321;28;20029;-66
2022/07/08 10:59:40;;;;;;;4.50;1.92;;;21.40;85.20;;;;;;5008509;28;20568;-66
2022/07/08 11:02:11;;;;;;;8.55;2.40;;;21.40;85.20;;;;;;5008880;28;20030;-66
2022/07/08 11:04:37;;;;;;;7.20;2.10;;;21.50;85.10;;;;;;5007812;28;20038;-67
2022/07/08 11:07:20;;;;;;;6.53;2.50;;;21.50;84.50;;;;;;4995125;28;20026;-65
2022/07/08 11:09:49;;;;;;;8.60;2.60;;;21.60;84.00;;;;;;5007193;28;20077;-64
2022/07/08 11:12:15;;;;;;;12.57;2.05;;;21.70;83.50;;;;;;5007804;28;20034;-64
2022/07/08 11:14:43;;;;;;;5.78;2.03;;;21.90;83.20;;;;;;4992968;28;20038;-63
2022/07/08 11:17:16;;;;;;;7.30;2.03;;;22.00;83.00;;;;;;5008960;28;20026;-63
2022/07/08 11:19:42;;;;;;;6.25;2.75;;;22.30;83.00;;;;;;5007874;28;20034;-65
2022/07/08 11:22:09;;;;;;;5.43;2.28;;;22.30;81.20;;;;;;5008140;28;20018;-64
2022/07/08 11:24:37;;;;;;;5.82;2.05;;;22.40;79.90;;;;;;5009846;28;20032;-64
2022/07/08 11:27:03;;;;;;;6.60;2.38;;;22.40;79.60;;;;;;5000240;28;20041;-64
2022/07/08 11:29:28;;;;;;;5.90;2.03;;;22.40;78.80;;;;;;5000784;28;20030;-63
2022/07/08 11:31:58;;;;;;;5.93;2.40;;;22.20;78.50;;;;;;5012969;28;20096;-63
2022/07/08 11:34:26;;;;;;;5.35;1.98;;;22.20;79.00;;;;;;5010459;28;20045;-64
2022/07/08 11:36:56;;;;;;;7.63;2.60;;;22.10;78.20;;;;;;5011768;28;20026;-65
2022/07/08 11:39:22;;;;;;;5.28;2.22;;;22.10;78.60;;;;;;5001840;28;20038;-65
2022/07/08 11:41:48;;;;;;;7.13;2.30;;;22.10;79.00;;;;;;5011340;28;20369;-65
2022/07/08 11:44:18;;;;;;;8.25;2.75;;;22.00;78.10;;;;;;5013312;28;20026;-65
2022/07/08 11:46:46;;;;;;;11.98;8.65;;;22.00;78.90;;;;;;5009276;28;20030;-65
2022/07/08 11:49:11;;;;;;;10.18;4.88;;;22.10;79.50;;;;;;5010666;28;20113;-64
2022/07/08 11:51:37;;;;;;;6.57;2.30;;;22.30;79.80;;;;;;5010728;28;22375;-64
2022/07/08 11:54:02;;;;;;;5.35;2.28;;;22.50;78.10;;;;;;5003826;28;20138;-64
2022/07/08 11:56:30;;;;;;;6.18;2.45;;;22.60;77.80;;;;;;5012198;28;20056;-64
2022/07/08 11:58:56;;;;;;;5.13;2.00;;;22.70;77.80;;;;;;4999539;28;20451;-66
2022/07/08 12:01:22;;;;;;;8.20;2.30;;;22.80;76.30;;;;;;5012193;28;20116;-65
2022/07/08 12:03:51;;;;;;;6.00;1.70;;;22.90;75.80;;;;;;5015872;28;20409;-64
2022/07/08 12:06:26;;;;;;;5.40;2.80;;;22.90;75.40;;;;;;5015912;28;20370;-65
2022/07/08 12:08:53;;;;;;;6.55;2.15;;;23.00;75.00;;;;;;5012091;28;20077;-65
2022/07/08 12:11:21;;;;;;;5.65;2.10;;;22.90;74.00;;;;;;5010395;28;20151;-64
2022/07/08 12:13:51;;;;;;;4.90;2.30;;;22.80;73.50;;;;;;5005821;28;20070;-65
2022/07/08 12:16:30;;;;;;;4.28;1.80;;;22.80;73.30;;;;;;5002691;28;20033;-65
2022/07/08 12:18:57;;;;;;;5.35;1.80;;;22.70;73.70;;;;;;5010591;28;20041;-64
2022/07/08 12:21:23;;;;;;;5.65;1.85;;;22.70;73.40;;;;;;5009381;28;20448;-65
2022/07/08 12:23:57;;;;;;;3.88;1.65;;;22.70;74.40;;;;;;5007939;28;20041;-65
2022/07/08 12:26:23;;;;;;;;;;;22.70;74.30;;;;;;5011864;28;20118;-65
2022/07/08 12:28:49;;;;;;;9.13;2.17;;;22.70;74.70;;;;;;5008392;28;20003;-64
2022/07/08 12:31:39;;;;;;;4.88;2.50;;;22.60;74.20;;;;;;5010686;28;20436;-64
2022/07/08 12:34:07;;;;;;;4.40;1.80;;;22.60;73.70;;;;;;5006203;28;20092;-64
2022/07/08 12:36:33;;;;;;;5.35;1.80;;;22.60;73.80;;;;;;5009571;28;20026;-64
2022/07/08 12:39:09;;;;;;;6.65;2.15;;;22.50;73.40;;;;;;5011960;28;20030;-63
2022/07/08 12:41:35;;;;;;;4.40;1.90;;;22.50;74.20;;;;;;5010850;28;20026;-63